sensor_id;sensor_type;location;lat;lon;timestamp;P1;durP1;ratioP1;P2;durP2;ratioP2
69081;SDS011;56184;51.986;5.760;2022-07-11T00:00:55;11.88;;;2.20;;
69081;SDS011;56184;51.986;5.760;2022-07-11T00:03:21;9.95;;;1.92;;
69081;SDS011;56184;51.986;5.760;2022-07-11T00:05:46;9.07;;;1.90;;
69081;SDS011;56184;51.986;5.760;2022-07-11T00:08:12;6.28;;;2.00;;
69081;SDS011;56184;51.986;5.760;2022-07-11T00:10:37;9.90;;;1.60;;
69081;SDS011;56184;51.986;5.760;2022-07-11T00:13:03;9.80;;;1.75;;
69081;SDS011;56184;51.986;5.760;2022-07-11T00:15:28;7.47;;;1.90;;
69081;SDS011;56184;51.986;5.760;2022-07-11T00:17:54;9.32;;;2.00;;
69081;SDS011;56184;51.986;5.760;2022-07-11T00:20:19;7.55;;;2.00;;
69081;SDS011;56184;51.986;5.760;2022-07-11T00:22:45;12.73;;;2.05;;
69081;SDS011;56184;51.986;5.760;2022-07-11T00:25:10;7.53;;;1.48;;
69081;SDS011;56184;51.986;5.760;2022-07-11T00:27:36;7.55;;;2.33;;
69081;SDS011;56184;51.986;5.760;2022-07-11T00:30:01;10.93;;;1.80;;
69081;SDS011;56184;51.986;5.760;2022-07-11T00:32:27;8.43;;;2.00;;
69081;SDS011;56184;51.986;5.760;2022-07-11T00:34:53;7.60;;;1.65;;
69081;SDS011;56184;51.986;5.760;2022-07-11T00:37:18;10.80;;;2.00;;
69081;SDS011;56184;51.986;5.760;2022-07-11T00:39:44;5.82;;;1.83;;
69081;SDS011;56184;51.986;5.760;2022-07-11T00:42:09;6.95;;;1.77;;
69081;SDS011;56184;51.986;5.760;2022-07-11T00:44:35;6.00;;;1.67;;
69081;SDS011;56184;51.986;5.760;2022-07-11T00:47:01;6.57;;;1.60;;
69081;SDS011;56184;51.986;5.760;2022-07-11T00:49:28;7.95;;;1.67;;
69081;SDS011;56184;51.986;5.760;2022-07-11T00:51:54;6.80;;;1.60;;
69081;SDS011;56184;51.986;5.760;2022-07-11T00:54:20;9.90;;;1.80;;
69081;SDS011;56184;51.986;5.760;2022-07-11T00:56:49;7.43;;;1.60;;
69081;SDS011;56184;51.986;5.760;2022-07-11T00:59:15;6.00;;;1.65;;
69081;SDS011;56184;51.986;5.760;2022-07-11T01:01:43;5.97;;;1.70;;
69081;SDS011;56184;51.986;5.760;2022-07-11T01:04:09;5.38;;;1.42;;
69081;SDS011;56184;51.986;5.760;2022-07-11T01:06:35;4.30;;;1.55;;
69081;SDS011;56184;51.986;5.760;2022-07-11T01:09:00;6.60;;;1.60;;
69081;SDS011;56184;51.986;5.760;2022-07-11T01:11:26;6.88;;;1.92;;
69081;SDS011;56184;51.986;5.760;2022-07-11T01:13:51;5.47;;;1.48;;
69081;SDS011;56184;51.986;5.760;2022-07-11T01:16:18;7.03;;;1.50;;
69081;SDS011;56184;51.986;5.760;2022-07-11T01:18:48;4.65;;;1.50;;
69081;SDS011;56184;51.986;5.760;2022-07-11T01:24:06;3.75;;;1.38;;
69081;SDS011;56184;51.986;5.760;2022-07-11T01:26:32;3.03;;;1.30;;
69081;SDS011;56184;51.986;5.760;2022-07-11T01:29:05;4.97;;;1.60;;
69081;SDS011;56184;51.986;5.760;2022-07-11T01:31:31;5.55;;;1.20;;
69081;SDS011;56184;51.986;5.760;2022-07-11T01:33:57;4.47;;;1.30;;
69081;SDS011;56184;51.986;5.760;2022-07-11T01:36:23;5.53;;;1.10;;
69081;SDS011;56184;51.986;5.760;2022-07-11T01:38:48;5.85;;;1.20;;
69081;SDS011;56184;51.986;5.760;2022-07-11T01:41:14;4.28;;;1.27;;
69081;SDS011;56184;51.986;5.760;2022-07-11T01:43:39;6.07;;;1.23;;
69081;SDS011;56184;51.986;5.760;2022-07-11T01:46:05;6.05;;;1.50;;
69081;SDS011;56184;51.986;5.760;2022-07-11T01:48:31;5.47;;;1.42;;
69081;SDS011;56184;51.986;5.760;2022-07-11T01:50:56;7.63;;;1.77;;
69081;SDS011;56184;51.986;5.760;2022-07-11T01:53:23;7.72;;;1.70;;
69081;SDS011;56184;51.986;5.760;2022-07-11T01:55:49;7.57;;;1.45;;
69081;SDS011;56184;51.986;5.760;2022-07-11T01:58:15;4.65;;;1.40;;
69081;SDS011;56184;51.986;5.760;2022-07-11T02:00:41;5.55;;;1.50;;
69081;SDS011;56184;51.986;5.760;2022-07-11T02:03:07;4.40;;;1.35;;
69081;SDS011;56184;51.986;5.760;2022-07-11T02:05:36;9.65;;;1.70;;
69081;SDS011;56184;51.986;5.760;2022-07-11T02:08:04;5.97;;;1.48;;
69081;SDS011;56184;51.986;5.760;2022-07-11T02:10:47;3.25;;;1.40;;
69081;SDS011;56184;51.986;5.760;2022-07-11T02:13:15;2.17;;;1.30;;
69081;SDS011;56184;51.986;5.760;2022-07-11T02:15:42;7.70;;;1.77;;
69081;SDS011;56184;51.986;5.760;2022-07-11T02:18:08;6.15;;;1.58;;
69081;SDS011;56184;51.986;5.760;2022-07-11T02:20:35;5.50;;;1.58;;
69081;SDS011;56184;51.986;5.760;2022-07-11T02:23:04;5.53;;;1.48;;
69081;SDS011;56184;51.986;5.760;2022-07-11T02:25:30;8.95;;;1.98;;
69081;SDS011;56184;51.986;5.760;2022-07-11T02:27:56;7.13;;;1.88;;
69081;SDS011;56184;51.986;5.760;2022-07-11T02:30:22;8.48;;;1.77;;
69081;SDS011;56184;51.986;5.760;2022-07-11T02:32:49;4.38;;;1.50;;
69081;SDS011;56184;51.986;5.760;2022-07-11T02:35:15;3.63;;;1.50;;
69081;SDS011;56184;51.986;5.760;2022-07-11T02:37:41;7.97;;;1.92;;
69081;SDS011;56184;51.986;5.760;2022-07-11T02:40:08;8.77;;;2.00;;
69081;SDS011;56184;51.986;5.760;2022-07-11T02:42:35;5.88;;;1.80;;
69081;SDS011;56184;51.986;5.760;2022-07-11T02:45:01;9.38;;;1.92;;
69081;SDS011;56184;51.986;5.760;2022-07-11T02:47:27;6.63;;;1.85;;
69081;SDS011;56184;51.986;5.760;2022-07-11T02:49:52;9.25;;;1.90;;
69081;SDS011;56184;51.986;5.760;2022-07-11T02:52:18;8.13;;;2.13;;
69081;SDS011;56184;51.986;5.760;2022-07-11T02:54:43;8.57;;;2.00;;
69081;SDS011;56184;51.986;5.760;2022-07-11T02:57:09;6.47;;;1.92;;
69081;SDS011;56184;51.986;5.760;2022-07-11T02:59:35;14.63;;;1.80;;
69081;SDS011;56184;51.986;5.760;2022-07-11T03:02:00;6.75;;;1.67;;
69081;SDS011;56184;51.986;5.760;2022-07-11T03:04:29;14.48;;;2.08;;
69081;SDS011;56184;51.986;5.760;2022-07-11T03:06:56;8.10;;;2.17;;
69081;SDS011;56184;51.986;5.760;2022-07-11T03:09:22;11.77;;;1.90;;
69081;SDS011;56184;51.986;5.760;2022-07-11T03:11:48;6.00;;;1.70;;
69081;SDS011;56184;51.986;5.760;2022-07-11T03:14:15;11.77;;;1.73;;
69081;SDS011;56184;51.986;5.760;2022-07-11T03:16:41;10.52;;;1.58;;
69081;SDS011;56184;51.986;5.760;2022-07-11T03:19:06;12.73;;;1.58;;
69081;SDS011;56184;51.986;5.760;2022-07-11T03:21:32;3.30;;;1.27;;
69081;SDS011;56184;51.986;5.760;2022-07-11T03:23:57;4.20;;;1.50;;
69081;SDS011;56184;51.986;5.760;2022-07-11T03:26:23;5.05;;;1.30;;
69081;SDS011;56184;51.986;5.760;2022-07-11T03:28:48;9.18;;;1.55;;
69081;SDS011;56184;51.986;5.760;2022-07-11T03:31:14;9.05;;;1.70;;
69081;SDS011;56184;51.986;5.760;2022-07-11T03:33:39;12.63;;;1.67;;
69081;SDS011;56184;51.986;5.760;2022-07-11T03:36:05;12.45;;;1.42;;
69081;SDS011;56184;51.986;5.760;2022-07-11T03:38:31;7.63;;;1.25;;
69081;SDS011;56184;51.986;5.760;2022-07-11T03:40:56;9.90;;;1.60;;
69081;SDS011;56184;51.986;5.760;2022-07-11T03:43:22;5.20;;;1.35;;
69081;SDS011;56184;51.986;5.760;2022-07-11T03:45:48;12.27;;;1.70;;
69081;SDS011;56184;51.986;5.760;2022-07-11T03:48:14;9.45;;;1.55;;
69081;SDS011;56184;51.986;5.760;2022-07-11T03:50:39;5.53;;;1.30;;
69081;SDS011;56184;51.986;5.760;2022-07-11T03:53:05;7.72;;;1.40;;
69081;SDS011;56184;51.986;5.760;2022-07-11T03:55:31;4.97;;;1.70;;
69081;SDS011;56184;51.986;5.760;2022-07-11T03:57:57;11.75;;;1.75;;
69081;SDS011;56184;51.986;5.760;2022-07-11T04:00:23;9.93;;;1.40;;
69081;SDS011;56184;51.986;5.760;2022-07-11T04:02:48;8.73;;;1.40;;
69081;SDS011;56184;51.986;5.760;2022-07-11T04:05:15;7.60;;;1.48;;
69081;SDS011;56184;51.986;5.760;2022-07-11T04:07:41;7.82;;;1.70;;
69081;SDS011;56184;51.986;5.760;2022-07-11T04:10:09;14.27;;;2.00;;
69081;SDS011;56184;51.986;5.760;2022-07-11T04:12:35;8.32;;;1.73;;
69081;SDS011;56184;51.986;5.760;2022-07-11T04:15:01;9.45;;;1.90;;
69081;SDS011;56184;51.986;5.760;2022-07-11T04:17:27;7.55;;;1.80;;
69081;SDS011;56184;51.986;5.760;2022-07-11T04:19:53;8.02;;;1.65;;
69081;SDS011;56184;51.986;5.760;2022-07-11T04:22:20;7.28;;;1.80;;
69081;SDS011;56184;51.986;5.760;2022-07-11T04:24:45;5.43;;;1.50;;
69081;SDS011;56184;51.986;5.760;2022-07-11T04:27:11;12.82;;;1.80;;
69081;SDS011;56184;51.986;5.760;2022-07-11T04:29:36;5.63;;;1.73;;
69081;SDS011;56184;51.986;5.760;2022-07-11T04:32:02;5.90;;;1.73;;
69081;SDS011;56184;51.986;5.760;2022-07-11T04:34:28;10.38;;;1.80;;
69081;SDS011;56184;51.986;5.760;2022-07-11T04:36:54;8.85;;;2.22;;
69081;SDS011;56184;51.986;5.760;2022-07-11T04:39:19;7.78;;;1.80;;
69081;SDS011;56184;51.986;5.760;2022-07-11T04:41:45;8.50;;;1.85;;
69081;SDS011;56184;51.986;5.760;2022-07-11T04:44:10;11.43;;;2.00;;
69081;SDS011;56184;51.986;5.760;2022-07-11T04:46:36;6.72;;;1.80;;
69081;SDS011;56184;51.986;5.760;2022-07-11T04:49:02;4.60;;;1.70;;
69081;SDS011;56184;51.986;5.760;2022-07-11T04:51:28;8.40;;;1.80;;
69081;SDS011;56184;51.986;5.760;2022-07-11T04:53:53;5.10;;;2.10;;
69081;SDS011;56184;51.986;5.760;2022-07-11T04:56:19;9.20;;;2.20;;
69081;SDS011;56184;51.986;5.760;2022-07-11T04:58:45;5.93;;;1.80;;
69081;SDS011;56184;51.986;5.760;2022-07-11T05:01:10;4.53;;;1.60;;
69081;SDS011;56184;51.986;5.760;2022-07-11T05:03:36;6.20;;;1.77;;
69081;SDS011;56184;51.986;5.760;2022-07-11T05:06:02;5.00;;;1.80;;
69081;SDS011;56184;51.986;5.760;2022-07-11T05:08:28;8.02;;;1.70;;
69081;SDS011;56184;51.986;5.760;2022-07-11T05:10:54;6.45;;;1.70;;
69081;SDS011;56184;51.986;5.760;2022-07-11T05:13:20;4.97;;;1.50;;
69081;SDS011;56184;51.986;5.760;2022-07-11T05:15:46;4.05;;;1.52;;
69081;SDS011;56184;51.986;5.760;2022-07-11T05:18:11;3.42;;;1.70;;
69081;SDS011;56184;51.986;5.760;2022-07-11T05:20:37;3.95;;;1.70;;
69081;SDS011;56184;51.986;5.760;2022-07-11T05:23:02;5.93;;;1.65;;
69081;SDS011;56184;51.986;5.760;2022-07-11T05:25:28;2.42;;;1.50;;
69081;SDS011;56184;51.986;5.760;2022-07-11T05:27:54;3.72;;;1.50;;
69081;SDS011;56184;51.986;5.760;2022-07-11T05:30:20;5.43;;;1.75;;
69081;SDS011;56184;51.986;5.760;2022-07-11T05:32:45;5.72;;;1.45;;
69081;SDS011;56184;51.986;5.760;2022-07-11T05:35:11;6.55;;;1.80;;
69081;SDS011;56184;51.986;5.760;2022-07-11T05:37:36;3.90;;;1.50;;
69081;SDS011;56184;51.986;5.760;2022-07-11T05:40:02;3.50;;;1.50;;
69081;SDS011;56184;51.986;5.760;2022-07-11T05:42:28;5.75;;;1.40;;
69081;SDS011;56184;51.986;5.760;2022-07-11T05:44:54;2.55;;;1.40;;
69081;SDS011;56184;51.986;5.760;2022-07-11T05:47:19;3.40;;;1.30;;
69081;SDS011;56184;51.986;5.760;2022-07-11T05:49:45;3.15;;;1.52;;
69081;SDS011;56184;51.986;5.760;2022-07-11T05:52:11;2.25;;;1.40;;
69081;SDS011;56184;51.986;5.760;2022-07-11T05:54:36;3.60;;;1.40;;
69081;SDS011;56184;51.986;5.760;2022-07-11T05:57:02;3.85;;;1.58;;
69081;SDS011;56184;51.986;5.760;2022-07-11T05:59:28;2.92;;;1.33;;
69081;SDS011;56184;51.986;5.760;2022-07-11T06:01:54;4.90;;;1.50;;
69081;SDS011;56184;51.986;5.760;2022-07-11T06:04:20;2.90;;;1.50;;
69081;SDS011;56184;51.986;5.760;2022-07-11T06:06:46;2.20;;;1.50;;
69081;SDS011;56184;51.986;5.760;2022-07-11T06:09:11;2.22;;;1.25;;
69081;SDS011;56184;51.986;5.760;2022-07-11T06:11:37;2.65;;;1.30;;
69081;SDS011;56184;51.986;5.760;2022-07-11T06:14:03;1.40;;;1.30;;
69081;SDS011;56184;51.986;5.760;2022-07-11T06:16:30;2.53;;;1.45;;
69081;SDS011;56184;51.986;5.760;2022-07-11T06:18:56;1.55;;;1.02;;
69081;SDS011;56184;51.986;5.760;2022-07-11T06:21:22;3.85;;;1.10;;
69081;SDS011;56184;51.986;5.760;2022-07-11T06:23:48;2.40;;;1.20;;
69081;SDS011;56184;51.986;5.760;2022-07-11T06:26:13;1.63;;;1.13;;
69081;SDS011;56184;51.986;5.760;2022-07-11T06:28:40;2.05;;;1.05;;
69081;SDS011;56184;51.986;5.760;2022-07-11T06:31:06;1.55;;;0.93;;
69081;SDS011;56184;51.986;5.760;2022-07-11T06:33:32;1.77;;;0.80;;
69081;SDS011;56184;51.986;5.760;2022-07-11T06:35:59;1.45;;;1.00;;
69081;SDS011;56184;51.986;5.760;2022-07-11T06:38:26;1.27;;;1.17;;
69081;SDS011;56184;51.986;5.760;2022-07-11T06:40:51;1.65;;;1.10;;
69081;SDS011;56184;51.986;5.760;2022-07-11T06:43:18;1.20;;;1.10;;
69081;SDS011;56184;51.986;5.760;2022-07-11T06:45:44;1.20;;;1.10;;
69081;SDS011;56184;51.986;5.760;2022-07-11T06:48:10;1.80;;;1.38;;
69081;SDS011;56184;51.986;5.760;2022-07-11T06:50:35;1.10;;;1.10;;
69081;SDS011;56184;51.986;5.760;2022-07-11T06:53:01;1.85;;;1.10;;
69081;SDS011;56184;51.986;5.760;2022-07-11T06:55:27;1.10;;;1.00;;
69081;SDS011;56184;51.986;5.760;2022-07-11T06:57:53;1.45;;;1.10;;
69081;SDS011;56184;51.986;5.760;2022-07-11T07:00:18;1.27;;;1.00;;
69081;SDS011;56184;51.986;5.760;2022-07-11T07:02:44;1.10;;;1.00;;
69081;SDS011;56184;51.986;5.760;2022-07-11T07:05:10;0.80;;;0.80;;
69081;SDS011;56184;51.986;5.760;2022-07-11T07:07:36;1.33;;;0.80;;
69081;SDS011;56184;51.986;5.760;2022-07-11T07:10:02;1.15;;;0.70;;
69081;SDS011;56184;51.986;5.760;2022-07-11T07:12:28;0.88;;;0.80;;
69081;SDS011;56184;51.986;5.760;2022-07-11T07:14:53;0.80;;;0.80;;
69081;SDS011;56184;51.986;5.760;2022-07-11T07:17:19;1.40;;;0.88;;
69081;SDS011;56184;51.986;5.760;2022-07-11T07:19:45;0.90;;;0.85;;
69081;SDS011;56184;51.986;5.760;2022-07-11T07:22:11;1.50;;;0.80;;
69081;SDS011;56184;51.986;5.760;2022-07-11T07:24:39;1.17;;;0.90;;
69081;SDS011;56184;51.986;5.760;2022-07-11T07:27:05;0.98;;;0.88;;
69081;SDS011;56184;51.986;5.760;2022-07-11T07:29:31;0.93;;;0.90;;
69081;SDS011;56184;51.986;5.760;2022-07-11T07:31:57;1.83;;;0.90;;
69081;SDS011;56184;51.986;5.760;2022-07-11T07:34:24;0.60;;;0.60;;
69081;SDS011;56184;51.986;5.760;2022-07-11T07:36:50;0.70;;;0.68;;
69081;SDS011;56184;51.986;5.760;2022-07-11T07:39:15;1.05;;;0.90;;
69081;SDS011;56184;51.986;5.760;2022-07-11T07:41:41;0.73;;;0.70;;
69081;SDS011;56184;51.986;5.760;2022-07-11T07:44:07;4.78;;;0.80;;
69081;SDS011;56184;51.986;5.760;2022-07-11T07:46:32;1.02;;;0.80;;
69081;SDS011;56184;51.986;5.760;2022-07-11T07:48:58;1.08;;;0.73;;
69081;SDS011;56184;51.986;5.760;2022-07-11T07:51:24;1.15;;;0.65;;
69081;SDS011;56184;51.986;5.760;2022-07-11T07:53:50;1.58;;;0.80;;
69081;SDS011;56184;51.986;5.760;2022-07-11T07:56:15;0.75;;;0.50;;
69081;SDS011;56184;51.986;5.760;2022-07-11T07:58:41;0.70;;;0.60;;
69081;SDS011;56184;51.986;5.760;2022-07-11T08:01:06;1.30;;;0.80;;
69081;SDS011;56184;51.986;5.760;2022-07-11T08:03:51;0.82;;;0.60;;
69081;SDS011;56184;51.986;5.760;2022-07-11T08:06:17;0.55;;;0.50;;
69081;SDS011;56184;51.986;5.760;2022-07-11T08:08:43;1.65;;;0.68;;
69081;SDS011;56184;51.986;5.760;2022-07-11T08:11:09;0.75;;;0.50;;
69081;SDS011;56184;51.986;5.760;2022-07-11T08:13:35;1.63;;;0.70;;
69081;SDS011;56184;51.986;5.760;2022-07-11T08:16:02;0.95;;;0.65;;
69081;SDS011;56184;51.986;5.760;2022-07-11T08:18:32;0.73;;;0.60;;
69081;SDS011;56184;51.986;5.760;2022-07-11T08:21:00;3.65;;;0.85;;
69081;SDS011;56184;51.986;5.760;2022-07-11T08:23:26;1.27;;;0.70;;
69081;SDS011;56184;51.986;5.760;2022-07-11T08:25:55;0.63;;;0.60;;
69081;SDS011;56184;51.986;5.760;2022-07-11T08:28:20;0.60;;;0.60;;
69081;SDS011;56184;51.986;5.760;2022-07-11T08:30:46;4.20;;;0.70;;
69081;SDS011;56184;51.986;5.760;2022-07-11T08:33:12;1.25;;;0.70;;
69081;SDS011;56184;51.986;5.760;2022-07-11T08:35:38;0.93;;;0.80;;
69081;SDS011;56184;51.986;5.760;2022-07-11T08:38:03;0.80;;;0.75;;
69081;SDS011;56184;51.986;5.760;2022-07-11T08:40:29;1.55;;;0.65;;
69081;SDS011;56184;51.986;5.760;2022-07-11T08:42:55;1.65;;;0.70;;
69081;SDS011;56184;51.986;5.760;2022-07-11T08:45:30;0.60;;;0.60;;
69081;SDS011;56184;51.986;5.760;2022-07-11T08:47:56;1.65;;;0.65;;
69081;SDS011;56184;51.986;5.760;2022-07-11T08:50:23;0.60;;;0.60;;
69081;SDS011;56184;51.986;5.760;2022-07-11T08:52:53;1.23;;;0.50;;
69081;SDS011;56184;51.986;5.760;2022-07-11T08:55:19;0.88;;;0.65;;
69081;SDS011;56184;51.986;5.760;2022-07-11T08:57:45;0.60;;;0.60;;
69081;SDS011;56184;51.986;5.760;2022-07-11T09:00:11;0.55;;;0.55;;
69081;SDS011;56184;51.986;5.760;2022-07-11T09:02:38;0.52;;;0.52;;
69081;SDS011;56184;51.986;5.760;2022-07-11T09:05:06;0.63;;;0.63;;
69081;SDS011;56184;51.986;5.760;2022-07-11T09:07:33;0.60;;;0.50;;
69081;SDS011;56184;51.986;5.760;2022-07-11T09:10:07;0.60;;;0.60;;
69081;SDS011;56184;51.986;5.760;2022-07-11T09:12:33;0.73;;;0.60;;
69081;SDS011;56184;51.986;5.760;2022-07-11T09:14:59;0.50;;;0.50;;
69081;SDS011;56184;51.986;5.760;2022-07-11T09:17:26;1.33;;;0.70;;
69081;SDS011;56184;51.986;5.760;2022-07-11T09:22:24;1.45;;;0.60;;
69081;SDS011;56184;51.986;5.760;2022-07-11T09:25:09;0.90;;;0.50;;
69081;SDS011;56184;51.986;5.760;2022-07-11T09:27:55;2.47;;;0.50;;
69081;SDS011;56184;51.986;5.760;2022-07-11T09:30:30;0.50;;;0.50;;
69081;SDS011;56184;51.986;5.760;2022-07-11T09:33:00;1.83;;;0.50;;
69081;SDS011;56184;51.986;5.760;2022-07-11T09:35:36;1.08;;;0.50;;
69081;SDS011;56184;51.986;5.760;2022-07-11T09:38:05;2.13;;;0.40;;
69081;SDS011;56184;51.986;5.760;2022-07-11T09:40:32;0.52;;;0.50;;
69081;SDS011;56184;51.986;5.760;2022-07-11T09:42:58;0.55;;;0.50;;
69081;SDS011;56184;51.986;5.760;2022-07-11T09:45:25;0.50;;;0.50;;
69081;SDS011;56184;51.986;5.760;2022-07-11T09:47:54;0.60;;;0.60;;
69081;SDS011;56184;51.986;5.760;2022-07-11T09:50:30;0.52;;;0.50;;
69081;SDS011;56184;51.986;5.760;2022-07-11T09:55:44;1.20;;;0.50;;
69081;SDS011;56184;51.986;5.760;2022-07-11T09:58:12;1.38;;;0.55;;
69081;SDS011;56184;51.986;5.760;2022-07-11T10:00:39;1.00;;;0.60;;
69081;SDS011;56184;51.986;5.760;2022-07-11T10:03:06;0.70;;;0.60;;
69081;SDS011;56184;51.986;5.760;2022-07-11T10:05:34;0.57;;;0.57;;
69081;SDS011;56184;51.986;5.760;2022-07-11T10:08:00;4.03;;;0.70;;
69081;SDS011;56184;51.986;5.760;2022-07-11T10:10:27;1.00;;;0.75;;
69081;SDS011;56184;51.986;5.760;2022-07-11T10:12:54;2.88;;;0.60;;
69081;SDS011;56184;51.986;5.760;2022-07-11T10:15:22;0.82;;;0.50;;
69081;SDS011;56184;51.986;5.760;2022-07-11T10:23:48;1.00;;;0.60;;
69081;SDS011;56184;51.986;5.760;2022-07-11T10:26:30;0.50;;;0.50;;
69081;SDS011;56184;51.986;5.760;2022-07-11T10:29:13;0.65;;;0.30;;
69081;SDS011;56184;51.986;5.760;2022-07-11T10:31:42;0.50;;;0.50;;
69081;SDS011;56184;51.986;5.760;2022-07-11T10:34:11;0.40;;;0.40;;
69081;SDS011;56184;51.986;5.760;2022-07-11T10:36:45;1.25;;;0.40;;
69081;SDS011;56184;51.986;5.760;2022-07-11T10:39:21;1.45;;;0.50;;
69081;SDS011;56184;51.986;5.760;2022-07-11T10:41:49;0.60;;;0.40;;
69081;SDS011;56184;51.986;5.760;2022-07-11T10:44:15;1.20;;;0.50;;
69081;SDS011;56184;51.986;5.760;2022-07-11T10:46:42;0.60;;;0.50;;
69081;SDS011;56184;51.986;5.760;2022-07-11T10:49:16;1.13;;;0.60;;
69081;SDS011;56184;51.986;5.760;2022-07-11T10:59:25;1.80;;;0.68;;
69081;SDS011;56184;51.986;5.760;2022-07-11T11:02:04;5.57;;;0.70;;
69081;SDS011;56184;51.986;5.760;2022-07-11T11:07:42;2.25;;;0.65;;
69081;SDS011;56184;51.986;5.760;2022-07-11T11:23:30;0.80;;;0.70;;
69081;SDS011;56184;51.986;5.760;2022-07-11T11:26:03;1.08;;;0.60;;
69081;SDS011;56184;51.986;5.760;2022-07-11T11:28:37;1.30;;;0.63;;
69081;SDS011;56184;51.986;5.760;2022-07-11T11:31:18;1.25;;;0.60;;
69081;SDS011;56184;51.986;5.760;2022-07-11T11:33:45;1.17;;;0.65;;
69081;SDS011;56184;51.986;5.760;2022-07-11T11:36:12;2.15;;;0.63;;
69081;SDS011;56184;51.986;5.760;2022-07-11T11:38:42;1.67;;;0.70;;
69081;SDS011;56184;51.986;5.760;2022-07-11T11:41:08;0.70;;;0.70;;
69081;SDS011;56184;51.986;5.760;2022-07-11T11:43:35;1.77;;;0.80;;
69081;SDS011;56184;51.986;5.760;2022-07-11T11:46:02;1.83;;;0.60;;
69081;SDS011;56184;51.986;5.760;2022-07-11T11:48:35;5.78;;;0.60;;
69081;SDS011;56184;51.986;5.760;2022-07-11T11:51:09;1.13;;;0.70;;
69081;SDS011;56184;51.986;5.760;2022-07-11T11:58:38;0.47;;;0.47;;
69081;SDS011;56184;51.986;5.760;2022-07-11T12:01:05;0.57;;;0.47;;
69081;SDS011;56184;51.986;5.760;2022-07-11T12:03:50;0.88;;;0.60;;
69081;SDS011;56184;51.986;5.760;2022-07-11T12:06:24;0.60;;;0.50;;
69081;SDS011;56184;51.986;5.760;2022-07-11T12:08:51;0.60;;;0.60;;
69081;SDS011;56184;51.986;5.760;2022-07-11T12:11:17;1.20;;;0.50;;
69081;SDS011;56184;51.986;5.760;2022-07-11T12:13:43;1.50;;;0.50;;
69081;SDS011;56184;51.986;5.760;2022-07-11T12:16:16;0.95;;;0.40;;
69081;SDS011;56184;51.986;5.760;2022-07-11T12:19:01;0.75;;;0.70;;
69081;SDS011;56184;51.986;5.760;2022-07-11T12:21:28;1.13;;;0.52;;
69081;SDS011;56184;51.986;5.760;2022-07-11T12:23:58;0.57;;;0.57;;
69081;SDS011;56184;51.986;5.760;2022-07-11T12:29:08;0.88;;;0.70;;
69081;SDS011;56184;51.986;5.760;2022-07-11T12:31:45;0.85;;;0.45;;
69081;SDS011;56184;51.986;5.760;2022-07-11T12:34:13;0.52;;;0.40;;
69081;SDS011;56184;51.986;5.760;2022-07-11T12:36:40;1.10;;;0.50;;
69081;SDS011;56184;51.986;5.760;2022-07-11T12:39:06;0.98;;;0.70;;
69081;SDS011;56184;51.986;5.760;2022-07-11T12:41:32;2.60;;;0.60;;
69081;SDS011;56184;51.986;5.760;2022-07-11T12:43:58;0.65;;;0.40;;
69081;SDS011;56184;51.986;5.760;2022-07-11T12:46:43;0.57;;;0.40;;
69081;SDS011;56184;51.986;5.760;2022-07-11T12:49:11;1.20;;;0.40;;
69081;SDS011;56184;51.986;5.760;2022-07-11T12:51:38;1.33;;;0.40;;
69081;SDS011;56184;51.986;5.760;2022-07-11T12:54:06;0.50;;;0.50;;
69081;SDS011;56184;51.986;5.760;2022-07-11T12:56:33;0.55;;;0.45;;
69081;SDS011;56184;51.986;5.760;2022-07-11T12:59:00;0.55;;;0.50;;
69081;SDS011;56184;51.986;5.760;2022-07-11T13:01:29;3.53;;;0.50;;
69081;SDS011;56184;51.986;5.760;2022-07-11T13:03:55;3.42;;;0.50;;
69081;SDS011;56184;51.986;5.760;2022-07-11T13:06:21;1.63;;;0.60;;
69081;SDS011;56184;51.986;5.760;2022-07-11T13:09:25;0.93;;;0.40;;
69081;SDS011;56184;51.986;5.760;2022-07-11T13:11:51;1.98;;;0.50;;
69081;SDS011;56184;51.986;5.760;2022-07-11T13:14:16;0.57;;;0.30;;
69081;SDS011;56184;51.986;5.760;2022-07-11T13:17:01;1.63;;;0.45;;
69081;SDS011;56184;51.986;5.760;2022-07-11T13:19:28;0.55;;;0.50;;
69081;SDS011;56184;51.986;5.760;2022-07-11T13:21:53;4.97;;;0.65;;
69081;SDS011;56184;51.986;5.760;2022-07-11T13:24:19;2.45;;;0.50;;
69081;SDS011;56184;51.986;5.760;2022-07-11T13:26:44;0.95;;;0.40;;
69081;SDS011;56184;51.986;5.760;2022-07-11T13:29:10;0.30;;;0.30;;
69081;SDS011;56184;51.986;5.760;2022-07-11T13:31:35;0.40;;;0.40;;
69081;SDS011;56184;51.986;5.760;2022-07-11T13:34:01;1.35;;;0.30;;
69081;SDS011;56184;51.986;5.760;2022-07-11T13:36:26;0.30;;;0.30;;
69081;SDS011;56184;51.986;5.760;2022-07-11T13:38:52;0.52;;;0.32;;
69081;SDS011;56184;51.986;5.760;2022-07-11T13:41:17;2.30;;;0.30;;
69081;SDS011;56184;51.986;5.760;2022-07-11T13:43:43;0.30;;;0.30;;
69081;SDS011;56184;51.986;5.760;2022-07-11T13:46:09;0.30;;;0.28;;
69081;SDS011;56184;51.986;5.760;2022-07-11T13:48:35;0.20;;;0.20;;
69081;SDS011;56184;51.986;5.760;2022-07-11T13:51:01;0.47;;;0.30;;
69081;SDS011;56184;51.986;5.760;2022-07-11T13:53:26;1.80;;;0.25;;
69081;SDS011;56184;51.986;5.760;2022-07-11T13:55:52;0.43;;;0.30;;
69081;SDS011;56184;51.986;5.760;2022-07-11T13:58:18;0.25;;;0.25;;
69081;SDS011;56184;51.986;5.760;2022-07-11T14:00:50;2.08;;;0.30;;
69081;SDS011;56184;51.986;5.760;2022-07-11T14:03:17;0.60;;;0.40;;
69081;SDS011;56184;51.986;5.760;2022-07-11T14:05:42;0.25;;;0.25;;
69081;SDS011;56184;51.986;5.760;2022-07-11T14:08:10;1.77;;;0.30;;
69081;SDS011;56184;51.986;5.760;2022-07-11T14:10:35;1.75;;;0.30;;
69081;SDS011;56184;51.986;5.760;2022-07-11T14:13:01;2.75;;;0.32;;
69081;SDS011;56184;51.986;5.760;2022-07-11T14:15:27;0.30;;;0.30;;
69081;SDS011;56184;51.986;5.760;2022-07-11T14:17:52;0.40;;;0.40;;
69081;SDS011;56184;51.986;5.760;2022-07-11T14:20:18;3.95;;;0.30;;
69081;SDS011;56184;51.986;5.760;2022-07-11T14:22:45;1.20;;;0.20;;
69081;SDS011;56184;51.986;5.760;2022-07-11T14:25:10;0.30;;;0.20;;
69081;SDS011;56184;51.986;5.760;2022-07-11T14:27:36;0.43;;;0.20;;
69081;SDS011;56184;51.986;5.760;2022-07-11T14:30:05;0.20;;;0.20;;
69081;SDS011;56184;51.986;5.760;2022-07-11T14:32:32;0.47;;;0.20;;
69081;SDS011;56184;51.986;5.760;2022-07-11T14:34:58;0.47;;;0.20;;
69081;SDS011;56184;51.986;5.760;2022-07-11T14:37:24;4.43;;;0.40;;
69081;SDS011;56184;51.986;5.760;2022-07-11T14:39:50;1.35;;;0.22;;
69081;SDS011;56184;51.986;5.760;2022-07-11T14:42:15;0.15;;;0.10;;
69081;SDS011;56184;51.986;5.760;2022-07-11T14:44:41;0.63;;;0.13;;
69081;SDS011;56184;51.986;5.760;2022-07-11T14:47:07;1.40;;;0.30;;
69081;SDS011;56184;51.986;5.760;2022-07-11T14:49:33;1.98;;;0.20;;
69081;SDS011;56184;51.986;5.760;2022-07-11T14:51:59;0.20;;;0.20;;
69081;SDS011;56184;51.986;5.760;2022-07-11T14:54:25;0.20;;;0.20;;
69081;SDS011;56184;51.986;5.760;2022-07-11T14:56:50;0.20;;;0.20;;
69081;SDS011;56184;51.986;5.760;2022-07-11T14:59:16;0.20;;;0.20;;
69081;SDS011;56184;51.986;5.760;2022-07-11T15:01:41;0.70;;;0.35;;
69081;SDS011;56184;51.986;5.760;2022-07-11T15:04:07;0.28;;;0.20;;
69081;SDS011;56184;51.986;5.760;2022-07-11T15:06:32;2.42;;;0.50;;
69081;SDS011;56184;51.986;5.760;2022-07-11T15:09:16;0.65;;;0.20;;
69081;SDS011;56184;51.986;5.760;2022-07-11T15:12:01;0.20;;;0.20;;
69081;SDS011;56184;51.986;5.760;2022-07-11T15:14:44;0.20;;;0.20;;
69081;SDS011;56184;51.986;5.760;2022-07-11T15:17:10;0.20;;;0.20;;
69081;SDS011;56184;51.986;5.760;2022-07-11T15:19:36;0.25;;;0.10;;
69081;SDS011;56184;51.986;5.760;2022-07-11T15:22:01;0.20;;;0.20;;
69081;SDS011;56184;51.986;5.760;2022-07-11T15:24:27;0.28;;;0.28;;
69081;SDS011;56184;51.986;5.760;2022-07-11T15:26:53;0.28;;;0.10;;
69081;SDS011;56184;51.986;5.760;2022-07-11T15:29:18;0.32;;;0.20;;
69081;SDS011;56184;51.986;5.760;2022-07-11T15:31:44;0.57;;;0.30;;
69081;SDS011;56184;51.986;5.760;2022-07-11T15:34:13;1.13;;;0.20;;